sensor_id;sensor_type;location;lat;lon;timestamp;P1;durP1;ratioP1;P2;durP2;ratioP2
19173;SDS011;9719;49.322;8.536;2024-03-08T00:03:33;4.75;;;4.35;;
19173;SDS011;9719;49.322;8.536;2024-03-08T00:08:36;6.40;;;5.80;;
19173;SDS011;9719;49.322;8.536;2024-03-08T00:13:38;3.10;;;2.43;;
19173;SDS011;9719;49.322;8.536;2024-03-08T00:18:40;8.43;;;3.97;;
19173;SDS011;9719;49.322;8.536;2024-03-08T00:23:43;5.50;;;4.15;;
19173;SDS011;9719;49.322;8.536;2024-03-08T00:28:44;5.43;;;4.53;;
19173;SDS011;9719;49.322;8.536;2024-03-08T00:33:46;4.67;;;3.00;;
19173;SDS011;9719;49.322;8.536;2024-03-08T00:38:49;4.23;;;3.87;;
19173;SDS011;9719;49.322;8.536;2024-03-08T00:43:51;5.27;;;4.87;;
19173;SDS011;9719;49.322;8.536;2024-03-08T00:48:53;4.07;;;3.58;;
19173;SDS011;9719;49.322;8.536;2024-03-08T00:53:57;5.90;;;3.45;;
19173;SDS011;9719;49.322;8.536;2024-03-08T00:58:59;4.28;;;3.97;;
19173;SDS011;9719;49.322;8.536;2024-03-08T01:04:00;4.72;;;3.60;;
19173;SDS011;9719;49.322;8.536;2024-03-08T01:09:03;5.50;;;4.23;;
19173;SDS011;9719;49.322;8.536;2024-03-08T01:14:07;5.93;;;3.70;;
19173;SDS011;9719;49.322;8.536;2024-03-08T01:19:08;4.65;;;4.30;;
19173;SDS011;9719;49.322;8.536;2024-03-08T01:24:11;4.30;;;3.90;;
19173;SDS011;9719;49.322;8.536;2024-03-08T01:29:13;7.10;;;3.67;;
19173;SDS011;9719;49.322;8.536;2024-03-08T01:34:15;3.95;;;3.65;;
19173;SDS011;9719;49.322;8.536;2024-03-08T01:39:18;6.35;;;4.97;;
19173;SDS011;9719;49.322;8.536;2024-03-08T01:44:22;4.18;;;3.72;;
19173;SDS011;9719;49.322;8.536;2024-03-08T01:49:24;3.42;;;3.05;;
19173;SDS011;9719;49.322;8.536;2024-03-08T01:54:29;5.10;;;4.67;;
19173;SDS011;9719;49.322;8.536;2024-03-08T01:59:31;4.83;;;3.90;;
19173;SDS011;9719;49.322;8.536;2024-03-08T02:04:33;4.13;;;3.83;;
19173;SDS011;9719;49.322;8.536;2024-03-08T02:09:37;8.23;;;5.87;;
19173;SDS011;9719;49.322;8.536;2024-03-08T02:14:39;7.70;;;4.63;;
19173;SDS011;9719;49.322;8.536;2024-03-08T02:19:41;4.73;;;4.33;;
19173;SDS011;9719;49.322;8.536;2024-03-08T02:24:44;4.43;;;3.67;;
19173;SDS011;9719;49.322;8.536;2024-03-08T02:29:46;5.78;;;4.10;;
19173;SDS011;9719;49.322;8.536;2024-03-08T02:34:48;5.73;;;3.77;;
19173;SDS011;9719;49.322;8.536;2024-03-08T02:39:51;6.13;;;5.00;;
19173;SDS011;9719;49.322;8.536;2024-03-08T02:44:53;8.47;;;4.40;;
19173;SDS011;9719;49.322;8.536;2024-03-08T02:49:55;4.43;;;4.10;;
19173;SDS011;9719;49.322;8.536;2024-03-08T02:54:58;3.53;;;3.23;;
19173;SDS011;9719;49.322;8.536;2024-03-08T02:59:59;5.97;;;4.13;;
19173;SDS011;9719;49.322;8.536;2024-03-08T03:05:01;6.50;;;4.23;;
19173;SDS011;9719;49.322;8.536;2024-03-08T03:10:08;5.90;;;4.33;;
19173;SDS011;9719;49.322;8.536;2024-03-08T03:15:10;5.40;;;3.67;;
19173;SDS011;9719;49.322;8.536;2024-03-08T03:20:12;6.27;;;3.87;;
19173;SDS011;9719;49.322;8.536;2024-03-08T03:25:23;5.33;;;3.80;;
19173;SDS011;9719;49.322;8.536;2024-03-08T03:30:28;5.50;;;5.00;;
19173;SDS011;9719;49.322;8.536;2024-03-08T03:35:33;4.73;;;4.23;;
19173;SDS011;9719;49.322;8.536;2024-03-08T03:40:37;4.47;;;3.40;;
19173;SDS011;9719;49.322;8.536;2024-03-08T03:45:39;3.73;;;3.13;;
19173;SDS011;9719;49.322;8.536;2024-03-08T03:50:41;4.30;;;3.90;;
19173;SDS011;9719;49.322;8.536;2024-03-08T03:55:45;6.23;;;4.40;;
19173;SDS011;9719;49.322;8.536;2024-03-08T04:00:47;3.87;;;3.30;;
19173;SDS011;9719;49.322;8.536;2024-03-08T04:05:48;5.37;;;4.27;;
19173;SDS011;9719;49.322;8.536;2024-03-08T04:10:52;4.13;;;3.40;;
19173;SDS011;9719;49.322;8.536;2024-03-08T04:15:54;8.33;;;4.13;;
19173;SDS011;9719;49.322;8.536;2024-03-08T04:20:55;4.83;;;3.80;;
19173;SDS011;9719;49.322;8.536;2024-03-08T04:25:58;4.57;;;3.93;;
19173;SDS011;9719;49.322;8.536;2024-03-08T04:31:00;10.70;;;4.77;;
19173;SDS011;9719;49.322;8.536;2024-03-08T04:36:02;4.80;;;4.40;;
19173;SDS011;9719;49.322;8.536;2024-03-08T04:41:05;4.53;;;4.03;;
19173;SDS011;9719;49.322;8.536;2024-03-08T04:46:07;5.00;;;4.60;;
19173;SDS011;9719;49.322;8.536;2024-03-08T04:51:09;4.83;;;4.43;;
19173;SDS011;9719;49.322;8.536;2024-03-08T04:56:12;7.93;;;3.43;;
19173;SDS011;9719;49.322;8.536;2024-03-08T05:01:14;5.97;;;4.50;;
19173;SDS011;9719;49.322;8.536;2024-03-08T05:06:15;9.77;;;5.50;;
19173;SDS011;9719;49.322;8.536;2024-03-08T05:11:18;3.57;;;3.13;;
19173;SDS011;9719;49.322;8.536;2024-03-08T05:16:20;6.17;;;4.27;;
19173;SDS011;9719;49.322;8.536;2024-03-08T05:21:24;7.00;;;4.33;;
19173;SDS011;9719;49.322;8.536;2024-03-08T05:26:27;4.43;;;4.00;;
19173;SDS011;9719;49.322;8.536;2024-03-08T05:31:30;4.47;;;2.97;;
19173;SDS011;9719;49.322;8.536;2024-03-08T05:36:38;4.27;;;3.50;;
19173;SDS011;9719;49.322;8.536;2024-03-08T05:41:41;4.90;;;3.83;;
19173;SDS011;9719;49.322;8.536;2024-03-08T05:46:43;7.73;;;4.07;;
19173;SDS011;9719;49.322;8.536;2024-03-08T05:51:46;7.33;;;4.57;;
19173;SDS011;9719;49.322;8.536;2024-03-08T05:56:49;6.17;;;4.43;;
19173;SDS011;9719;49.322;8.536;2024-03-08T06:01:53;4.70;;;4.10;;
19173;SDS011;9719;49.322;8.536;2024-03-08T06:06:54;4.27;;;3.67;;
19173;SDS011;9719;49.322;8.536;2024-03-08T06:11:59;8.00;;;4.53;;
19173;SDS011;9719;49.322;8.536;2024-03-08T06:17:01;5.77;;;3.87;;
19173;SDS011;9719;49.322;8.536;2024-03-08T06:22:05;5.83;;;4.30;;
19173;SDS011;9719;49.322;8.536;2024-03-08T06:27:08;7.87;;;4.67;;
19173;SDS011;9719;49.322;8.536;2024-03-08T06:32:09;5.47;;;3.90;;
19173;SDS011;9719;49.322;8.536;2024-03-08T06:37:11;4.57;;;3.77;;
19173;SDS011;9719;49.322;8.536;2024-03-08T06:42:16;4.20;;;3.20;;
19173;SDS011;9719;49.322;8.536;2024-03-08T06:47:17;5.43;;;4.87;;
19173;SDS011;9719;49.322;8.536;2024-03-08T06:52:19;6.20;;;4.27;;
19173;SDS011;9719;49.322;8.536;2024-03-08T06:57:23;6.13;;;4.23;;
19173;SDS011;9719;49.322;8.536;2024-03-08T07:02:25;4.70;;;4.17;;
19173;SDS011;9719;49.322;8.536;2024-03-08T07:07:27;4.97;;;4.60;;
19173;SDS011;9719;49.322;8.536;2024-03-08T07:12:31;9.03;;;4.83;;
19173;SDS011;9719;49.322;8.536;2024-03-08T07:17:33;7.33;;;5.40;;
19173;SDS011;9719;49.322;8.536;2024-03-08T07:22:35;5.80;;;5.13;;
19173;SDS011;9719;49.322;8.536;2024-03-08T07:27:38;7.77;;;5.57;;
19173;SDS011;9719;49.322;8.536;2024-03-08T07:32:40;7.97;;;5.43;;
19173;SDS011;9719;49.322;8.536;2024-03-08T07:37:41;5.03;;;4.40;;
19173;SDS011;9719;49.322;8.536;2024-03-08T07:42:44;4.47;;;3.30;;
19173;SDS011;9719;49.322;8.536;2024-03-08T07:47:46;4.25;;;3.88;;
19173;SDS011;9719;49.322;8.536;2024-03-08T07:52:48;4.65;;;3.95;;
19173;SDS011;9719;49.322;8.536;2024-03-08T07:57:51;6.37;;;4.33;;
19173;SDS011;9719;49.322;8.536;2024-03-08T08:02:52;5.60;;;3.67;;
19173;SDS011;9719;49.322;8.536;2024-03-08T08:07:54;7.20;;;4.87;;
19173;SDS011;9719;49.322;8.536;2024-03-08T08:12:57;4.47;;;3.20;;
19173;SDS011;9719;49.322;8.536;2024-03-08T08:17:59;4.87;;;4.47;;
19173;SDS011;9719;49.322;8.536;2024-03-08T08:23:01;5.13;;;4.60;;
19173;SDS011;9719;49.322;8.536;2024-03-08T08:28:04;6.43;;;4.30;;
19173;SDS011;9719;49.322;8.536;2024-03-08T08:33:06;5.80;;;4.70;;
19173;SDS011;9719;49.322;8.536;2024-03-08T08:38:08;5.87;;;5.23;;
19173;SDS011;9719;49.322;8.536;2024-03-08T08:43:11;7.53;;;4.53;;
19173;SDS011;9719;49.322;8.536;2024-03-08T08:48:13;3.55;;;3.30;;
19173;SDS011;9719;49.322;8.536;2024-03-08T08:53:16;3.63;;;3.00;;
19173;SDS011;9719;49.322;8.536;2024-03-08T08:58:19;6.07;;;5.47;;
19173;SDS011;9719;49.322;8.536;2024-03-08T09:03:22;4.60;;;4.20;;
19173;SDS011;9719;49.322;8.536;2024-03-08T09:08:25;6.17;;;5.57;;
19173;SDS011;9719;49.322;8.536;2024-03-08T09:13:28;5.05;;;4.28;;
19173;SDS011;9719;49.322;8.536;2024-03-08T09:18:29;5.15;;;4.65;;
19173;SDS011;9719;49.322;8.536;2024-03-08T09:23:32;4.65;;;4.22;;
19173;SDS011;9719;49.322;8.536;2024-03-08T09:28:35;5.93;;;5.33;;
19173;SDS011;9719;49.322;8.536;2024-03-08T09:33:36;5.17;;;4.70;;
19173;SDS011;9719;49.322;8.536;2024-03-08T09:38:39;7.55;;;6.93;;
19173;SDS011;9719;49.322;8.536;2024-03-08T09:43:42;7.47;;;6.03;;
19173;SDS011;9719;49.322;8.536;2024-03-08T09:48:44;10.10;;;6.13;;
19173;SDS011;9719;49.322;8.536;2024-03-08T09:53:46;8.07;;;7.28;;
19173;SDS011;9719;49.322;8.536;2024-03-08T09:58:49;6.65;;;6.18;;
19173;SDS011;9719;49.322;8.536;2024-03-08T10:04:14;6.60;;;5.80;;
19173;SDS011;9719;49.322;8.536;2024-03-08T10:09:17;7.32;;;5.50;;
19173;SDS011;9719;49.322;8.536;2024-03-08T10:14:20;6.60;;;6.10;;
19173;SDS011;9719;49.322;8.536;2024-03-08T10:19:22;5.13;;;4.72;;
19173;SDS011;9719;49.322;8.536;2024-03-08T10:24:24;6.80;;;5.45;;
19173;SDS011;9719;49.322;8.536;2024-03-08T10:29:27;7.35;;;6.75;;
19173;SDS011;9719;49.322;8.536;2024-03-08T10:34:29;7.43;;;6.25;;
19173;SDS011;9719;49.322;8.536;2024-03-08T10:39:32;6.70;;;6.13;;
19173;SDS011;9719;49.322;8.536;2024-03-08T10:44:43;7.10;;;5.53;;
19173;SDS011;9719;49.322;8.536;2024-03-08T10:49:54;7.35;;;6.75;;
19173;SDS011;9719;49.322;8.536;2024-03-08T10:55:04;6.28;;;5.78;;
19173;SDS011;9719;49.322;8.536;2024-03-08T11:00:13;7.28;;;6.13;;
19173;SDS011;9719;49.322;8.536;2024-03-08T11:05:21;7.53;;;6.85;;
19173;SDS011;9719;49.322;8.536;2024-03-08T11:10:36;7.32;;;6.07;;
19173;SDS011;9719;49.322;8.536;2024-03-08T11:15:52;6.13;;;5.53;;
19173;SDS011;9719;49.322;8.536;2024-03-08T11:20:54;7.68;;;7.00;;
19173;SDS011;9719;49.322;8.536;2024-03-08T11:25:57;5.50;;;5.10;;
19173;SDS011;9719;49.322;8.536;2024-03-08T11:36:28;9.20;;;8.27;;
19173;SDS011;9719;49.322;8.536;2024-03-08T11:41:32;6.72;;;5.95;;
19173;SDS011;9719;49.322;8.536;2024-03-08T11:46:35;5.03;;;4.45;;
19173;SDS011;9719;49.322;8.536;2024-03-08T11:51:36;8.82;;;7.93;;
19173;SDS011;9719;49.322;8.536;2024-03-08T11:56:38;6.40;;;5.90;;
19173;SDS011;9719;49.322;8.536;2024-03-08T12:01:43;5.78;;;5.28;;
19173;SDS011;9719;49.322;8.536;2024-03-08T12:06:45;7.00;;;6.45;;
19173;SDS011;9719;49.322;8.536;2024-03-08T12:11:47;6.60;;;5.95;;
19173;SDS011;9719;49.322;8.536;2024-03-08T12:16:52;8.30;;;6.38;;
19173;SDS011;9719;49.322;8.536;2024-03-08T12:21:54;7.50;;;6.03;;
19173;SDS011;9719;49.322;8.536;2024-03-08T12:26:56;6.03;;;5.43;;
19173;SDS011;9719;49.322;8.536;2024-03-08T12:31:59;7.38;;;6.70;;
19173;SDS011;9719;49.322;8.536;2024-03-08T12:37:02;6.13;;;5.60;;
19173;SDS011;9719;49.322;8.536;2024-03-08T12:42:07;10.98;;;6.85;;
19173;SDS011;9719;49.322;8.536;2024-03-08T12:47:10;6.97;;;6.22;;
19173;SDS011;9719;49.322;8.536;2024-03-08T12:52:11;8.38;;;6.20;;
19173;SDS011;9719;49.322;8.536;2024-03-08T12:57:13;6.95;;;5.72;;
19173;SDS011;9719;49.322;8.536;2024-03-08T13:02:16;9.60;;;7.30;;
19173;SDS011;9719;49.322;8.536;2024-03-08T13:07:18;6.38;;;5.88;;
19173;SDS011;9719;49.322;8.536;2024-03-08T13:12:19;7.32;;;6.40;;
19173;SDS011;9719;49.322;8.536;2024-03-08T13:17:22;7.90;;;6.70;;
19173;SDS011;9719;49.322;8.536;2024-03-08T13:22:24;7.97;;;7.18;;
19173;SDS011;9719;49.322;8.536;2024-03-08T13:27:28;6.05;;;5.45;;
19173;SDS011;9719;49.322;8.536;2024-03-08T13:32:31;8.02;;;5.90;;
19173;SDS011;9719;49.322;8.536;2024-03-08T13:37:32;8.75;;;7.50;;
19173;SDS011;9719;49.322;8.536;2024-03-08T13:42:35;7.68;;;6.97;;
19173;SDS011;9719;49.322;8.536;2024-03-08T13:47:39;9.05;;;6.47;;
19173;SDS011;9719;49.322;8.536;2024-03-08T13:52:41;8.18;;;7.38;;
19173;SDS011;9719;49.322;8.536;2024-03-08T13:57:44;8.45;;;7.60;;
19173;SDS011;9719;49.322;8.536;2024-03-08T14:02:47;7.47;;;6.07;;
19173;SDS011;9719;49.322;8.536;2024-03-08T14:07:49;9.77;;;7.32;;
19173;SDS011;9719;49.322;8.536;2024-03-08T14:12:51;6.95;;;6.35;;
19173;SDS011;9719;49.322;8.536;2024-03-08T14:17:54;7.47;;;6.55;;
19173;SDS011;9719;49.322;8.536;2024-03-08T14:22:57;7.63;;;6.82;;
19173;SDS011;9719;49.322;8.536;2024-03-08T14:27:59;9.98;;;6.53;;
19173;SDS011;9719;49.322;8.536;2024-03-08T14:33:05;7.28;;;6.07;;
19173;SDS011;9719;49.322;8.536;2024-03-08T14:38:09;8.88;;;6.95;;
19173;SDS011;9719;49.322;8.536;2024-03-08T14:43:10;8.38;;;6.70;;
19173;SDS011;9719;49.322;8.536;2024-03-08T14:48:14;8.18;;;7.20;;
19173;SDS011;9719;49.322;8.536;2024-03-08T14:53:16;8.05;;;7.30;;
19173;SDS011;9719;49.322;8.536;2024-03-08T14:58:18;7.63;;;6.90;;
19173;SDS011;9719;49.322;8.536;2024-03-08T15:03:22;7.47;;;6.25;;
19173;SDS011;9719;49.322;8.536;2024-03-08T15:08:26;6.78;;;6.15;;
19173;SDS011;9719;49.322;8.536;2024-03-08T15:13:28;8.18;;;6.18;;
19173;SDS011;9719;49.322;8.536;2024-03-08T15:18:40;8.57;;;7.00;;
19173;SDS011;9719;49.322;8.536;2024-03-08T15:23:46;6.70;;;5.65;;
19173;SDS011;9719;49.322;8.536;2024-03-08T15:28:52;8.77;;;7.30;;
19173;SDS011;9719;49.322;8.536;2024-03-08T15:33:55;9.23;;;5.72;;
19173;SDS011;9719;49.322;8.536;2024-03-08T15:39:00;7.18;;;6.50;;
19173;SDS011;9719;49.322;8.536;2024-03-08T15:44:03;7.60;;;6.72;;
19173;SDS011;9719;49.322;8.536;2024-03-08T15:49:06;7.05;;;6.20;;
19173;SDS011;9719;49.322;8.536;2024-03-08T15:54:08;7.28;;;6.13;;
19173;SDS011;9719;49.322;8.536;2024-03-08T15:59:10;8.18;;;6.25;;
19173;SDS011;9719;49.322;8.536;2024-03-08T16:04:13;11.13;;;6.88;;
19173;SDS011;9719;49.322;8.536;2024-03-08T16:09:15;6.85;;;6.18;;
19173;SDS011;9719;49.322;8.536;2024-03-08T16:14:17;7.18;;;6.47;;
19173;SDS011;9719;49.322;8.536;2024-03-08T16:19:21;7.15;;;6.05;;
19173;SDS011;9719;49.322;8.536;2024-03-08T16:24:24;7.00;;;6.32;;
19173;SDS011;9719;49.322;8.536;2024-03-08T16:29:26;7.18;;;6.47;;
19173;SDS011;9719;49.322;8.536;2024-03-08T16:34:30;10.43;;;6.68;;
19173;SDS011;9719;49.322;8.536;2024-03-08T16:39:34;8.00;;;7.35;;
19173;SDS011;9719;49.322;8.536;2024-03-08T16:44:36;8.63;;;7.63;;
19173;SDS011;9719;49.322;8.536;2024-03-08T16:49:42;7.53;;;6.70;;
19173;SDS011;9719;49.322;8.536;2024-03-08T16:54:43;9.38;;;7.20;;
19173;SDS011;9719;49.322;8.536;2024-03-08T16:59:46;6.78;;;6.13;;
19173;SDS011;9719;49.322;8.536;2024-03-08T17:04:48;9.32;;;6.78;;
19173;SDS011;9719;49.322;8.536;2024-03-08T17:09:50;9.10;;;7.70;;
19173;SDS011;9719;49.322;8.536;2024-03-08T17:14:52;8.77;;;7.18;;
19173;SDS011;9719;49.322;8.536;2024-03-08T17:19:55;6.55;;;5.90;;
19173;SDS011;9719;49.322;8.536;2024-03-08T17:24:56;11.13;;;6.97;;
19173;SDS011;9719;49.322;8.536;2024-03-08T17:29:59;7.70;;;5.75;;
19173;SDS011;9719;49.322;8.536;2024-03-08T17:35:05;8.05;;;5.60;;
19173;SDS011;9719;49.322;8.536;2024-03-08T17:40:11;8.00;;;7.15;;
19173;SDS011;9719;49.322;8.536;2024-03-08T17:45:17;7.18;;;6.20;;
19173;SDS011;9719;49.322;8.536;2024-03-08T17:50:22;6.88;;;5.75;;
19173;SDS011;9719;49.322;8.536;2024-03-08T17:55:24;7.13;;;6.22;;
19173;SDS011;9719;49.322;8.536;2024-03-08T18:00:26;6.13;;;5.72;;
19173;SDS011;9719;49.322;8.536;2024-03-08T18:05:31;7.50;;;6.07;;
19173;SDS011;9719;49.322;8.536;2024-03-08T18:10:36;10.43;;;7.35;;
19173;SDS011;9719;49.322;8.536;2024-03-08T18:15:40;10.43;;;7.50;;
19173;SDS011;9719;49.322;8.536;2024-03-08T18:20:44;7.25;;;4.97;;
19173;SDS011;9719;49.322;8.536;2024-03-08T18:25:46;6.97;;;6.30;;
19173;SDS011;9719;49.322;8.536;2024-03-08T18:30:48;5.97;;;5.00;;
19173;SDS011;9719;49.322;8.536;2024-03-08T18:35:52;10.30;;;4.93;;
19173;SDS011;9719;49.322;8.536;2024-03-08T18:40:54;7.22;;;6.35;;
19173;SDS011;9719;49.322;8.536;2024-03-08T18:45:58;6.85;;;6.13;;
19173;SDS011;9719;49.322;8.536;2024-03-08T18:51:02;8.15;;;6.20;;
19173;SDS011;9719;49.322;8.536;2024-03-08T18:56:05;6.05;;;5.55;;
19173;SDS011;9719;49.322;8.536;2024-03-08T19:01:08;8.57;;;5.82;;
19173;SDS011;9719;49.322;8.536;2024-03-08T19:06:11;6.90;;;5.50;;
19173;SDS011;9719;49.322;8.536;2024-03-08T19:11:14;8.43;;;5.78;;
19173;SDS011;9719;49.322;8.536;2024-03-08T19:16:15;8.57;;;6.90;;
19173;SDS011;9719;49.322;8.536;2024-03-08T19:21:19;6.57;;;6.07;;
19173;SDS011;9719;49.322;8.536;2024-03-08T19:26:21;6.25;;;5.43;;
19173;SDS011;9719;49.322;8.536;2024-03-08T19:31:23;6.15;;;4.70;;
19173;SDS011;9719;49.322;8.536;2024-03-08T19:36:26;6.72;;;5.63;;
19173;SDS011;9719;49.322;8.536;2024-03-08T19:41:28;7.63;;;5.22;;
19173;SDS011;9719;49.322;8.536;2024-03-08T19:46:31;10.82;;;6.32;;
19173;SDS011;9719;49.322;8.536;2024-03-08T19:51:41;7.00;;;5.88;;
19173;SDS011;9719;49.322;8.536;2024-03-08T19:56:46;5.45;;;5.03;;
19173;SDS011;9719;49.322;8.536;2024-03-08T20:01:47;4.10;;;3.78;;
19173;SDS011;9719;49.322;8.536;2024-03-08T20:06:52;6.53;;;5.25;;
19173;SDS011;9719;49.322;8.536;2024-03-08T20:11:54;4.80;;;4.47;;
19173;SDS011;9719;49.322;8.536;2024-03-08T20:16:56;4.03;;;3.72;;
19173;SDS011;9719;49.322;8.536;2024-03-08T20:21:59;5.35;;;4.93;;
19173;SDS011;9719;49.322;8.536;2024-03-08T20:27:02;5.32;;;4.18;;
19173;SDS011;9719;49.322;8.536;2024-03-08T20:32:05;3.95;;;3.15;;
19173;SDS011;9719;49.322;8.536;2024-03-08T20:37:10;3.85;;;3.20;;
19173;SDS011;9719;49.322;8.536;2024-03-08T20:42:13;4.63;;;4.20;;
19173;SDS011;9719;49.322;8.536;2024-03-08T20:47:18;3.88;;;3.58;;
19173;SDS011;9719;49.322;8.536;2024-03-08T20:52:23;4.60;;;3.40;;
19173;SDS011;9719;49.322;8.536;2024-03-08T20:57:26;3.55;;;2.25;;
19173;SDS011;9719;49.322;8.536;2024-03-08T21:02:30;2.92;;;2.50;;
19173;SDS011;9719;49.322;8.536;2024-03-08T21:07:34;3.20;;;2.85;;
19173;SDS011;9719;49.322;8.536;2024-03-08T21:12:37;5.38;;;3.25;;
19173;SDS011;9719;49.322;8.536;2024-03-08T21:17:40;4.70;;;4.10;;
19173;SDS011;9719;49.322;8.536;2024-03-08T21:22:44;5.20;;;4.70;;
19173;SDS011;9719;49.322;8.536;2024-03-08T21:27:46;3.97;;;3.25;;
19173;SDS011;9719;49.322;8.536;2024-03-08T21:32:48;4.85;;;2.95;;
19173;SDS011;9719;49.322;8.536;2024-03-08T21:37:51;6.20;;;4.32;;
19173;SDS011;9719;49.322;8.536;2024-03-08T21:42:54;2.88;;;2.63;;
19173;SDS011;9719;49.322;8.536;2024-03-08T21:47:56;3.25;;;2.95;;
19173;SDS011;9719;49.322;8.536;2024-03-08T21:53:01;2.37;;;2.27;;
19173;SDS011;9719;49.322;8.536;2024-03-08T21:58:07;4.28;;;3.58;;
19173;SDS011;9719;49.322;8.536;2024-03-08T22:03:08;3.13;;;2.93;;
19173;SDS011;9719;49.322;8.536;2024-03-08T22:08:12;2.17;;;2.05;;
19173;SDS011;9719;49.322;8.536;2024-03-08T22:13:14;3.85;;;3.13;;
19173;SDS011;9719;49.322;8.536;2024-03-08T22:18:16;2.40;;;2.28;;
19173;SDS011;9719;49.322;8.536;2024-03-08T22:23:19;2.72;;;2.63;;
19173;SDS011;9719;49.322;8.536;2024-03-08T22:28:22;3.33;;;2.90;;
19173;SDS011;9719;49.322;8.536;2024-03-08T22:33:25;6.35;;;3.72;;
19173;SDS011;9719;49.322;8.536;2024-03-08T22:38:28;5.53;;;3.10;;
19173;SDS011;9719;49.322;8.536;2024-03-08T22:43:30;3.17;;;2.85;;
19173;SDS011;9719;49.322;8.536;2024-03-08T22:48:34;3.83;;;2.80;;
19173;SDS011;9719;49.322;8.536;2024-03-08T22:53:37;3.28;;;2.13;;
19173;SDS011;9719;49.322;8.536;2024-03-08T22:58:41;2.75;;;2.55;;
19173;SDS011;9719;49.322;8.536;2024-03-08T23:03:44;5.65;;;3.92;;
19173;SDS011;9719;49.322;8.536;2024-03-08T23:08:47;2.35;;;2.13;;
19173;SDS011;9719;49.322;8.536;2024-03-08T23:13:48;2.95;;;2.67;;
19173;SDS011;9719;49.322;8.536;2024-03-08T23:18:50;4.20;;;3.90;;
19173;SDS011;9719;49.322;8.536;2024-03-08T23:23:54;3.95;;;3.13;;
19173;SDS011;9719;49.322;8.536;2024-03-08T23:28:55;4.43;;;4.03;;
19173;SDS011;9719;49.322;8.536;2024-03-08T23:33:59;3.00;;;2.90;;
19173;SDS011;9719;49.322;8.536;2024-03-08T23:39:02;2.83;;;2.60;;
19173;SDS011;9719;49.322;8.536;2024-03-08T23:44:04;3.75;;;3.38;;
19173;SDS011;9719;49.322;8.536;2024-03-08T23:49:06;2.90;;;2.33;;
19173;SDS011;9719;49.322;8.536;2024-03-08T23:54:09;5.80;;;2.92;;
19173;SDS011;9719;49.322;8.536;2024-03-08T23:59:11;4.25;;;3.17;;
